createdAt,value
2023-05-22T00:00:20.087Z,101373.50
2023-05-22T00:00:54.881Z,101379.38
2023-05-22T00:01:30.068Z,101374.81
2023-05-22T00:02:02.729Z,101378.06
2023-05-22T00:02:43.203Z,101380.31
2023-05-22T00:03:15.172Z,101383.06
2023-05-22T00:03:46.959Z,101377.91
2023-05-22T00:04:23.610Z,101375.78
2023-05-22T00:04:58.767Z,101377.66
2023-05-22T00:05:31.328Z,101373.84
2023-05-22T00:06:03.080Z,101380.34
2023-05-22T00:06:34.662Z,101378.81
2023-05-22T00:07:07.149Z,101381.28
2023-05-22T00:07:39.092Z,101377.44
2023-05-22T00:08:13.768Z,101372.06
2023-05-22T00:08:45.338Z,101378.88
2023-05-22T00:09:16.947Z,101377.44
2023-05-22T00:09:48.531Z,101375.75
2023-05-22T00:10:20.124Z,101376.31
2023-05-22T00:10:51.937Z,101375.69
2023-05-22T00:11:23.548Z,101379.06
2023-05-22T00:11:55.173Z,101370.44
2023-05-22T00:12:26.846Z,101370.44
2023-05-22T00:12:58.420Z,101371.56
2023-05-22T00:13:30.096Z,101371.56
2023-05-22T00:14:01.965Z,101367.50
2023-05-22T00:14:33.565Z,101363.97
2023-05-22T00:15:06.158Z,101367.19
2023-05-22T00:15:37.806Z,101364.53
2023-05-22T00:16:09.610Z,101361.84
2023-05-22T00:16:41.632Z,101368.31
2023-05-22T00:17:15.086Z,101370.94
2023-05-22T00:17:47.683Z,101371.94
2023-05-22T00:18:19.431Z,101369.31
2023-05-22T00:18:51.223Z,101365.66
2023-05-22T00:19:23.356Z,101368.38
2023-05-22T00:19:55.564Z,101370.00
2023-05-22T00:20:27.376Z,101364.84
2023-05-22T00:20:59.528Z,101369.44
2023-05-22T00:21:34.719Z,101364.03
2023-05-22T00:22:06.519Z,101366.50
2023-05-22T00:22:38.145Z,101363.78
2023-05-22T00:23:15.253Z,101362.41
2023-05-22T00:23:47.178Z,101367.25
2023-05-22T00:24:18.856Z,101366.16
2023-05-22T00:24:50.511Z,101357.03
2023-05-22T00:25:22.086Z,101363.47
2023-05-22T00:25:54.046Z,101363.41
2023-05-22T00:26:26.574Z,101355.09
2023-05-22T00:26:58.402Z,101360.66
2023-05-22T00:27:30.036Z,101355.78
2023-05-22T00:28:03.069Z,101359.53
2023-05-22T00:28:34.883Z,101355.22
2023-05-22T00:29:06.695Z,101355.47
2023-05-22T00:29:38.389Z,101352.03
2023-05-22T00:30:10.541Z,101353.97
2023-05-22T00:30:42.281Z,101354.22
2023-05-22T00:31:14.249Z,101347.56
2023-05-22T00:31:45.868Z,101345.13
2023-05-22T00:32:17.487Z,101350.19
2023-05-22T00:32:49.104Z,101351.53
2023-05-22T00:33:20.794Z,101347.75
2023-05-22T00:33:52.397Z,101344.69
2023-05-22T00:34:24.057Z,101345.50
2023-05-22T00:34:55.777Z,101350.06
2023-05-22T00:35:27.369Z,101350.88
2023-05-22T00:35:58.954Z,101342.72
2023-05-22T00:36:30.714Z,101342.72
2023-05-22T00:37:02.324Z,101341.59
2023-05-22T00:37:34.042Z,101344.84
2023-05-22T00:38:06.395Z,101338.00
2023-05-22T00:38:38.186Z,101340.13
2023-05-22T00:39:09.881Z,101341.44
2023-05-22T00:39:41.469Z,101343.91
2023-05-22T00:40:14.019Z,101348.97
2023-05-22T00:40:45.669Z,101352.72
2023-05-22T00:41:17.266Z,101340.88
2023-05-22T00:41:48.940Z,101342.25
2023-05-22T00:42:20.907Z,101355.34
2023-05-22T00:42:52.598Z,101343.56
2023-05-22T00:43:24.232Z,101348.31
2023-05-22T00:43:55.796Z,101351.25
2023-05-22T00:44:27.390Z,101349.63
2023-05-22T00:44:59.001Z,101350.41
2023-05-22T00:45:31.128Z,101345.41
2023-05-22T00:46:02.837Z,101346.31
2023-05-22T00:46:34.669Z,101347.13
2023-05-22T00:47:06.291Z,101346.97
2023-05-22T00:47:37.935Z,101344.22
2023-05-22T00:48:09.768Z,101342.00
2023-05-22T00:48:41.329Z,101339.88
2023-05-22T00:49:13.088Z,101340.38
2023-05-22T00:49:45.837Z,101335.56
2023-05-22T00:50:18.308Z,101338.19
2023-05-22T00:50:54.351Z,101337.31
2023-05-22T00:51:28.795Z,101333.13
2023-05-22T00:52:00.811Z,101336.88
2023-05-22T00:52:32.994Z,101329.56
2023-05-22T00:53:04.714Z,101327.63
2023-05-22T00:53:37.161Z,101334.13
2023-05-22T00:54:09.839Z,101340.06
2023-05-22T00:54:42.107Z,101338.69
2023-05-22T00:55:14.524Z,101340.16
2023-05-22T00:55:46.476Z,101339.44
2023-05-22T00:56:18.862Z,101341.78
2023-05-22T00:56:50.930Z,101339.69
2023-05-22T00:57:22.885Z,101330.19
2023-05-22T00:57:54.456Z,101331.81
2023-05-22T00:58:26.761Z,101332.69
2023-05-22T00:58:58.766Z,101333.63
2023-05-22T00:59:31.302Z,101330.31
2023-05-22T01:00:06.180Z,101326.78
2023-05-22T01:00:42.184Z,101329.66
2023-05-22T01:01:15.535Z,101325.84
2023-05-22T01:01:47.654Z,101338.72
2023-05-22T01:02:20.168Z,101331.53
2023-05-22T01:02:51.918Z,101328.03
2023-05-22T01:03:26.954Z,101329.41
2023-05-22T01:04:03.899Z,101322.72
2023-05-22T01:04:35.889Z,101323.22
2023-05-22T01:05:07.919Z,101322.78
2023-05-22T01:05:40.717Z,101326.31
2023-05-22T01:06:18.404Z,101323.63
2023-05-22T01:06:50.070Z,101321.25
2023-05-22T01:07:21.674Z,101320.66
2023-05-22T01:07:53.335Z,101322.06
2023-05-22T01:08:25.317Z,101314.47
2023-05-22T01:08:57.652Z,101312.66
2023-05-22T01:09:30.084Z,101313.16
2023-05-22T01:10:01.723Z,101310.22
2023-05-22T01:10:37.906Z,101315.84
2023-05-22T01:11:16.667Z,101318.78
2023-05-22T01:12:00.522Z,101320.09
2023-05-22T01:12:32.482Z,101316.34
2023-05-22T01:13:40.408Z,101317.97
2023-05-22T01:14:25.472Z,101310.66
2023-05-22T01:15:17.461Z,101312.59
2023-05-22T01:16:01.563Z,101315.28
2023-05-22T01:16:41.830Z,101311.72
2023-05-22T01:17:34.822Z,101309.69
2023-05-22T01:18:21.098Z,101306.66
2023-05-22T01:19:12.739Z,101308.88
2023-05-22T01:20:07.755Z,101309.69
2023-05-22T01:20:44.098Z,101307.06
2023-05-22T01:21:34.136Z,101305.44
2023-05-22T01:22:36.712Z,101298.44
2023-05-22T01:23:19.499Z,101305.38
2023-05-22T01:24:16.162Z,101309.34
2023-05-22T01:24:56.934Z,101300.13
2023-05-22T01:25:35.362Z,101303.97
2023-05-22T01:26:22.099Z,101301.78
2023-05-22T01:27:35.037Z,101302.13
2023-05-22T01:28:44.203Z,101302.00
2023-05-22T01:29:30.761Z,101303.97
2023-05-22T01:30:33.232Z,101301.63
2023-05-22T01:31:16.052Z,101296.78
2023-05-22T01:31:49.105Z,101305.25
2023-05-22T01:32:22.012Z,101299.38
2023-05-22T01:32:57.717Z,101302.63
2023-05-22T01:33:38.707Z,101302.63
2023-05-22T01:34:11.954Z,101300.69
2023-05-22T01:34:45.647Z,101302.00
2023-05-22T01:35:18.823Z,101304.28
2023-05-22T01:35:54.098Z,101302.41
2023-05-22T01:36:29.124Z,101299.88
2023-05-22T01:37:01.834Z,101302.59
2023-05-22T01:37:33.513Z,101300.69
2023-05-22T01:38:06.702Z,101302.50
2023-05-22T01:38:39.088Z,101301.06
2023-05-22T01:39:12.117Z,101302.81
2023-05-22T01:39:44.410Z,101302.59
2023-05-22T01:40:16.093Z,101305.94
2023-05-22T01:40:48.205Z,101305.03
2023-05-22T01:41:21.634Z,101308.78
2023-05-22T01:41:53.488Z,101303.66
2023-05-22T01:42:25.108Z,101308.78
2023-05-22T01:42:56.827Z,101306.09
2023-05-22T01:43:28.453Z,101298.75
2023-05-22T01:44:01.084Z,101303.75
2023-05-22T01:44:33.891Z,101304.47
2023-05-22T01:45:06.062Z,101301.53
2023-05-22T01:45:37.807Z,101302.00
2023-05-22T01:46:10.006Z,101298.72
2023-05-22T01:46:41.759Z,101302.97
2023-05-22T01:47:13.556Z,101307.22
2023-05-22T01:47:45.296Z,101296.47
2023-05-22T01:48:17.069Z,101308.84
2023-05-22T01:48:49.993Z,101301.84
2023-05-22T01:49:21.940Z,101300.28
2023-05-22T01:49:53.920Z,101302.47
2023-05-22T01:50:26.566Z,101303.28
2023-05-22T01:51:03.933Z,101300.84
2023-05-22T01:51:58.075Z,101299.53
2023-05-22T01:52:42.625Z,101299.88
2023-05-22T01:53:31.025Z,101304.47
2023-05-22T01:54:06.219Z,101301.16
2023-05-22T01:54:53.406Z,101299.31
2023-05-22T01:55:30.819Z,101300.03
2023-05-22T01:56:13.221Z,101303.78
2023-05-22T01:57:02.806Z,101300.78
2023-05-22T01:58:00.424Z,101297.09
2023-05-22T01:58:50.153Z,101302.81
2023-05-22T01:59:30.894Z,101297.78
2023-05-22T02:00:09.881Z,101306.91
2023-05-22T02:00:51.672Z,101297.91
2023-05-22T02:01:26.099Z,101300.53
2023-05-22T02:02:01.875Z,101298.09
2023-05-22T02:02:36.407Z,101294.34
2023-05-22T02:03:14.230Z,101301.84
2023-05-22T02:03:51.711Z,101301.84
2023-05-22T02:04:23.611Z,101301.84
2023-05-22T02:05:02.688Z,101293.28
2023-05-22T02:05:35.902Z,101290.50
2023-05-22T02:06:10.529Z,101289.19
2023-05-22T02:06:44.633Z,101293.84
2023-05-22T02:07:25.055Z,101288.78
2023-05-22T02:07:57.080Z,101291.63
2023-05-22T02:08:32.886Z,101290.59
2023-05-22T02:09:05.653Z,101289.53
2023-05-22T02:09:44.985Z,101287.91
2023-05-22T02:10:18.995Z,101294.81
2023-05-22T02:10:56.424Z,101288.31
2023-05-22T02:11:32.909Z,101294.81
2023-05-22T02:12:12.897Z,101290.81
2023-05-22T02:12:44.896Z,101293.50
2023-05-22T02:13:19.857Z,101291.72
2023-05-22T02:13:51.878Z,101293.59
2023-05-22T02:14:23.914Z,101286.69
2023-05-22T02:15:02.212Z,101286.34
2023-05-22T02:15:34.917Z,101286.44
2023-05-22T02:16:07.272Z,101287.50
2023-05-22T02:16:58.127Z,101290.19
2023-05-22T02:17:31.585Z,101286.06
2023-05-22T02:18:03.444Z,101283.13
2023-05-22T02:18:35.206Z,101284.41
2023-05-22T02:19:07.658Z,101283.34
2023-05-22T02:19:39.807Z,101285.56
2023-05-22T02:20:17.185Z,101285.00
2023-05-22T02:20:48.918Z,101285.22
2023-05-22T02:21:22.400Z,101282.13
2023-05-22T02:21:54.200Z,101280.00
2023-05-22T02:22:26.829Z,101289.94
2023-05-22T02:22:58.442Z,101285.63
2023-05-22T02:23:31.884Z,101288.31
2023-05-22T02:24:03.690Z,101289.59
2023-05-22T02:24:36.927Z,101285.38
2023-05-22T02:25:14.105Z,101275.13
2023-05-22T02:25:46.676Z,101276.75
2023-05-22T02:26:18.339Z,101274.28
2023-05-22T02:26:49.906Z,101276.75
2023-05-22T02:27:22.296Z,101274.53
2023-05-22T02:27:53.885Z,101277.22
2023-05-22T02:28:25.584Z,101280.16
2023-05-22T02:28:57.190Z,101277.13
2023-05-22T02:29:30.005Z,101277.38
2023-05-22T02:30:01.629Z,101272.19
2023-05-22T02:30:33.367Z,101274.28
2023-05-22T02:31:05.109Z,101272.66
2023-05-22T02:31:36.913Z,101268.72
2023-05-22T02:32:08.529Z,101271.34
2023-05-22T02:32:40.920Z,101271.34
2023-05-22T02:33:12.624Z,101276.72
2023-05-22T02:33:44.826Z,101265.66
2023-05-22T02:34:17.189Z,101270.22
2023-05-22T02:34:48.775Z,101273.63
2023-05-22T02:35:20.552Z,101269.63
2023-05-22T02:35:52.122Z,101272.81
2023-05-22T02:36:23.730Z,101272.97
2023-05-22T02:36:58.894Z,101274.94
2023-05-22T02:37:31.236Z,101277.53
2023-05-22T02:38:03.520Z,101276.72
2023-05-22T02:38:35.414Z,101277.06
2023-05-22T02:39:07.452Z,101272.81
2023-05-22T02:39:39.233Z,101274.94
2023-05-22T02:40:11.134Z,101272.16
2023-05-22T02:40:43.926Z,101271.81
2023-05-22T02:41:19.357Z,101271.34
2023-05-22T02:41:51.177Z,101275.75
2023-05-22T02:42:22.967Z,101275.66
2023-05-22T02:42:54.600Z,101268.88
2023-05-22T02:43:27.389Z,101275.78
2023-05-22T02:43:59.058Z,101274.75
2023-05-22T02:44:30.758Z,101266.84
2023-05-22T02:45:02.886Z,101270.34
2023-05-22T02:45:34.821Z,101280.50
2023-05-22T02:46:06.444Z,101274.09
2023-05-22T02:46:38.037Z,101273.50
2023-05-22T02:47:09.651Z,101272.44
2023-05-22T02:47:44.397Z,101270.00
2023-05-22T02:48:16.831Z,101270.59
2023-05-22T02:48:48.464Z,101268.72
2023-05-22T02:49:20.050Z,101266.59
2023-05-22T02:49:52.132Z,101261.22
2023-05-22T02:50:26.625Z,101265.78
2023-05-22T02:50:58.260Z,101267.06
2023-05-22T02:51:29.810Z,101262.09
2023-05-22T02:52:01.762Z,101273.19
2023-05-22T02:52:33.511Z,101261.53
2023-05-22T02:53:05.234Z,101267.16
2023-05-22T02:53:40.160Z,101269.34
2023-05-22T02:54:12.290Z,101264.31
2023-05-22T02:54:44.414Z,101265.38
2023-05-22T02:55:15.993Z,101263.25
2023-05-22T02:55:48.422Z,101262.69
2023-05-22T02:56:21.250Z,101263.56
2023-05-22T02:56:52.900Z,101262.03
2023-05-22T02:57:24.581Z,101266.59
2023-05-22T02:57:56.158Z,101265.53
2023-05-22T02:58:30.016Z,101259.66
2023-05-22T02:59:01.587Z,101254.88
2023-05-22T02:59:36.762Z,101261.41
2023-05-22T03:00:11.696Z,101265.16
2023-05-22T03:00:43.364Z,101263.38
2023-05-22T03:01:15.582Z,101262.06
2023-05-22T03:01:48.470Z,101263.69
2023-05-22T03:02:20.264Z,101255.53
2023-05-22T03:02:53.297Z,101262.88
2023-05-22T03:03:25.466Z,101262.22
2023-05-22T03:03:57.494Z,101264.19
2023-05-22T03:04:29.624Z,101265.81
2023-05-22T03:05:01.328Z,101255.88
2023-05-22T03:05:33.464Z,101255.63
2023-05-22T03:06:05.343Z,101252.94
2023-05-22T03:06:38.365Z,101259.13
2023-05-22T03:07:10.071Z,101256.19
2023-05-22T03:07:42.817Z,101256.03
2023-05-22T03:08:16.014Z,101256.75
2023-05-22T03:08:51.069Z,101257.00
2023-05-22T03:09:22.697Z,101263.69
2023-05-22T03:09:54.369Z,101261.72
2023-05-22T03:10:26.003Z,101253.75
2023-05-22T03:10:59.334Z,101262.13
2023-05-22T03:11:31.532Z,101255.38
2023-05-22T03:12:03.351Z,101260.09
2023-05-22T03:12:34.985Z,101262.22
2023-05-22T03:13:06.805Z,101262.22
2023-05-22T03:13:38.479Z,101258.97
2023-05-22T03:14:10.109Z,101260.75
2023-05-22T03:14:41.727Z,101261.25
2023-05-22T03:15:13.323Z,101263.84
2023-05-22T03:15:46.501Z,101263.13
2023-05-22T03:16:20.977Z,101256.19
2023-05-22T03:16:54.741Z,101259.94
2023-05-22T03:17:26.857Z,101267.75
2023-05-22T03:17:58.726Z,101252.13
2023-05-22T03:18:30.539Z,101259.63
2023-05-22T03:19:12.617Z,101264.56
2023-05-22T03:19:44.304Z,101269.38
2023-05-22T03:20:18.776Z,101271.41
2023-05-22T03:20:50.632Z,101265.03
2023-05-22T03:21:22.295Z,101268.72
2023-05-22T03:21:53.917Z,101271.41
2023-05-22T03:22:26.825Z,101265.94
2023-05-22T03:22:58.437Z,101273.19
2023-05-22T03:23:30.780Z,101270.66
2023-05-22T03:24:02.680Z,101265.28
2023-05-22T03:24:34.553Z,101267.38
2023-05-22T03:25:09.422Z,101269.09
2023-05-22T03:25:41.060Z,101263.97
2023-05-22T03:26:12.695Z,101270.66
2023-05-22T03:26:45.168Z,101266.47
2023-05-22T03:27:26.168Z,101271.84
2023-05-22T03:27:57.774Z,101270.19
2023-05-22T03:28:31.548Z,101264.13
2023-05-22T03:29:03.230Z,101268.91
2023-05-22T03:29:35.075Z,101269.22
2023-05-22T03:30:08.219Z,101274.00
2023-05-22T03:30:41.851Z,101268.34
2023-05-22T03:31:19.026Z,101266.22
2023-05-22T03:32:06.779Z,101270.31
2023-05-22T03:32:38.759Z,101275.06
2023-05-22T03:33:11.795Z,101269.44
2023-05-22T03:33:44.330Z,101268.06
2023-05-22T03:34:16.984Z,101270.91
2023-05-22T03:34:51.150Z,101266.38
2023-05-22T03:35:23.059Z,101267.19
2023-05-22T03:35:56.407Z,101269.44
2023-05-22T03:36:28.758Z,101260.66
2023-05-22T03:37:01.481Z,101265.22
2023-05-22T03:37:33.198Z,101273.03
2023-05-22T03:38:05.188Z,101267.19
2023-05-22T03:38:37.126Z,101261.81
2023-05-22T03:39:08.830Z,101266.69
2023-05-22T03:39:45.146Z,101266.81
2023-05-22T03:40:25.586Z,101266.34
2023-05-22T03:40:57.247Z,101264.25
2023-05-22T03:41:29.321Z,101259.56
2023-05-22T03:42:01.301Z,101265.16
2023-05-22T03:42:33.884Z,101260.84
2023-05-22T03:43:06.570Z,101259.34
2023-05-22T03:43:38.269Z,101266.69
2023-05-22T03:44:09.865Z,101261.81
2023-05-22T03:44:41.455Z,101259.13
2023-05-22T03:45:13.052Z,101256.69
2023-05-22T03:45:47.414Z,101257.88
2023-05-22T03:46:19.765Z,101252.53
2023-05-22T03:46:51.536Z,101257.88
2023-05-22T03:47:23.134Z,101253.00
2023-05-22T03:47:54.818Z,101250.88
2023-05-22T03:48:26.709Z,101256.84
2023-05-22T03:48:58.357Z,101253.00
2023-05-22T03:49:29.971Z,101256.25
2023-05-22T03:50:02.308Z,101250.78
2023-05-22T03:50:33.999Z,101245.91
2023-05-22T03:51:06.147Z,101251.03
2023-05-22T03:51:38.049Z,101257.09
2023-05-22T03:52:10.730Z,101246.13
2023-05-22T03:52:42.327Z,101248.00
2023-05-22T03:53:15.369Z,101249.03
2023-05-22T03:53:47.120Z,101240.06
2023-05-22T03:54:19.569Z,101244.75
2023-05-22T03:54:51.519Z,101240.34
2023-05-22T03:55:23.131Z,101237.09
2023-05-22T03:55:54.754Z,101240.59
2023-05-22T03:56:27.129Z,101238.38
2023-05-22T03:56:59.070Z,101235.56
2023-05-22T03:57:30.679Z,101238.16
2023-05-22T03:58:02.557Z,101239.94
2023-05-22T03:58:34.158Z,101234.22
2023-05-22T03:59:05.851Z,101234.69
2023-05-22T03:59:37.474Z,101232.50
2023-05-22T04:00:09.793Z,101234.00
2023-05-22T04:00:46.331Z,101234.94
2023-05-22T04:01:20.937Z,101244.50
2023-05-22T04:01:52.531Z,101231.56
2023-05-22T04:02:26.336Z,101232.63
2023-05-22T04:02:58.842Z,101228.53
2023-05-22T04:03:30.665Z,101232.63
2023-05-22T04:04:02.331Z,101229.59
2023-05-22T04:04:38.465Z,101229.59
2023-05-22T04:05:10.484Z,101236.81
2023-05-22T04:05:42.229Z,101236.81
2023-05-22T04:06:15.173Z,101236.13
2023-05-22T04:06:48.676Z,101235.53
2023-05-22T04:07:20.437Z,101231.47
2023-05-22T04:07:52.302Z,101229.38
2023-05-22T04:08:25.533Z,101238.81
2023-05-22T04:08:57.246Z,101236.94
2023-05-22T04:09:31.646Z,101233.09
2023-05-22T04:10:06.488Z,101237.41
2023-05-22T04:10:39.106Z,101232.63
2023-05-22T04:11:11.102Z,101241.72
2023-05-22T04:11:42.731Z,101236.34
2023-05-22T04:12:14.301Z,101239.03
2023-05-22T04:12:47.464Z,101240.09
2023-05-22T04:13:19.120Z,101239.28
2023-05-22T04:13:51.104Z,101235.41
2023-05-22T04:14:22.677Z,101238.81
2023-05-22T04:14:54.502Z,101233.09
2023-05-22T04:15:26.576Z,101237.16
2023-05-22T04:15:58.508Z,101239.84
2023-05-22T04:16:30.223Z,101237.50
2023-05-22T04:17:04.830Z,101233.31
2023-05-22T04:17:39.772Z,101240.31
2023-05-22T04:18:12.009Z,101233.31
2023-05-22T04:18:43.823Z,101232.84
2023-05-22T04:19:18.123Z,101234.00
2023-05-22T04:19:49.824Z,101230.72
2023-05-22T04:20:22.357Z,101230.28
2023-05-22T04:20:55.700Z,101228.63
2023-05-22T04:21:28.360Z,101227.34
2023-05-22T04:21:59.941Z,101223.38
2023-05-22T04:22:31.552Z,101226.75
2023-05-22T04:23:03.127Z,101219.59
2023-05-22T04:23:35.868Z,101220.84
2023-05-22T04:24:09.532Z,101223.91
2023-05-22T04:24:41.072Z,101222.84
2023-05-22T04:25:12.635Z,101221.47
2023-05-22T04:25:44.593Z,101224.25
2023-05-22T04:26:18.115Z,101221.22
2023-05-22T04:26:50.153Z,101218.16
2023-05-22T04:27:23.011Z,101221.66
2023-05-22T04:27:54.950Z,101222.84
2023-05-22T04:28:26.738Z,101225.19
2023-05-22T04:28:58.333Z,101214.78
2023-05-22T04:29:29.941Z,101221.56
2023-05-22T04:30:02.818Z,101225.13
2023-05-22T04:30:34.502Z,101222.91
2023-05-22T04:31:06.860Z,101219.41
2023-05-22T04:31:38.565Z,101226.66
2023-05-22T04:32:10.673Z,101221.94
2023-05-22T04:32:43.534Z,101213.91
2023-05-22T04:33:16.389Z,101230.00
2023-05-22T04:33:49.906Z,101226.13
2023-05-22T04:34:21.884Z,101226.47
2023-05-22T04:34:53.579Z,101226.59
2023-05-22T04:35:25.179Z,101223.09
2023-05-22T04:35:56.746Z,101219.69
2023-05-22T04:36:29.205Z,101227.50
2023-05-22T04:37:03.561Z,101224.34
2023-05-22T04:37:35.810Z,101227.28
2023-05-22T04:38:07.412Z,101235.56
2023-05-22T04:38:38.969Z,101227.66
2023-05-22T04:39:10.628Z,101223.28
2023-05-22T04:39:42.899Z,101236.47
2023-05-22T04:40:15.338Z,101233.19
2023-05-22T04:40:47.767Z,101240.78
2023-05-22T04:41:22.632Z,101237.94
2023-05-22T04:42:14.437Z,101240.38
2023-05-22T04:42:46.267Z,101236.78
2023-05-22T04:43:18.789Z,101241.34
2023-05-22T04:43:50.427Z,101238.09
2023-05-22T04:44:23.857Z,101244.03
2023-05-22T04:44:58.127Z,101242.97
2023-05-22T04:45:30.570Z,101233.53
2023-05-22T04:46:08.752Z,101237.13
2023-05-22T04:46:40.686Z,101237.13
2023-05-22T04:47:14.483Z,101235.63
2023-05-22T04:47:46.207Z,101233.06
2023-05-22T04:48:17.861Z,101238.19
2023-05-22T04:48:49.640Z,101242.75
2023-05-22T04:49:21.261Z,101239.91
2023-05-22T04:49:52.855Z,101239.19
2023-05-22T04:50:24.988Z,101244.72
2023-05-22T04:50:57.568Z,101245.91
2023-05-22T04:51:31.290Z,101248.19
2023-05-22T04:52:04.887Z,101252.50
2023-05-22T04:52:37.416Z,101248.50
2023-05-22T04:53:09.249Z,101245.59
2023-05-22T04:53:41.053Z,101246.88
2023-05-22T04:54:12.600Z,101247.53
2023-05-22T04:54:46.700Z,101246.16
2023-05-22T04:55:19.381Z,101248.34
2023-05-22T04:55:51.168Z,101252.75
2023-05-22T04:56:35.503Z,101252.28
2023-05-22T04:57:09.024Z,101249.50
2023-05-22T04:57:41.018Z,101252.44
2023-05-22T04:58:13.007Z,101254.56
2023-05-22T04:58:44.593Z,101255.72
2023-05-22T04:59:16.817Z,101253.00
2023-05-22T04:59:48.584Z,101251.13
2023-05-22T05:00:22.551Z,101250.41
2023-05-22T05:00:55.052Z,101249.41
2023-05-22T05:01:28.142Z,101255.63
2023-05-22T05:02:00.971Z,101250.47
2023-05-22T05:02:32.708Z,101255.03
2023-05-22T05:03:04.528Z,101260.78
2023-05-22T05:03:36.385Z,101254.91
2023-05-22T05:04:08.008Z,101261.75
2023-05-22T05:04:39.753Z,101251.78
2023-05-22T05:05:11.342Z,101255.38
2023-05-22T05:05:43.450Z,101253.25
2023-05-22T05:06:17.256Z,101254.06
2023-05-22T05:06:48.904Z,101252.03
2023-05-22T05:07:21.561Z,101253.69
2023-05-22T05:07:53.805Z,101247.56
2023-05-22T05:08:25.619Z,101248.88
2023-05-22T05:08:57.222Z,101253.28
2023-05-22T05:09:29.358Z,101251.88
2023-05-22T05:10:01.078Z,101252.53
2023-05-22T05:10:32.706Z,101254.41
2023-05-22T05:11:04.672Z,101256.03
2023-05-22T05:11:37.482Z,101250.47
2023-05-22T05:12:09.254Z,101247.84
2023-05-22T05:12:41.109Z,101254.53
2023-05-22T05:13:12.841Z,101252.91
2023-05-22T05:13:49.574Z,101251.94
2023-05-22T05:14:21.207Z,101253.06
2023-05-22T05:14:52.849Z,101254.38
2023-05-22T05:15:24.617Z,101253.31
2023-05-22T05:15:58.896Z,101257.69
2023-05-22T05:16:30.763Z,101262.63
2023-05-22T05:17:02.459Z,101258.06
2023-05-22T05:17:34.206Z,101253.81
2023-05-22T05:18:06.862Z,101259.69
2023-05-22T05:18:41.496Z,101248.94
2023-05-22T05:19:14.058Z,101256.19
2023-05-22T05:19:45.864Z,101250.88
2023-05-22T05:20:17.448Z,101259.84
2023-05-22T05:20:49.055Z,101261.94
2023-05-22T05:21:21.593Z,101252.94
2023-05-22T05:21:55.947Z,101256.19
2023-05-22T05:22:27.660Z,101258.44
2023-05-22T05:22:59.252Z,101249.81
2023-05-22T05:23:30.830Z,101244.97
2023-05-22T05:24:02.755Z,101256.81
2023-05-22T05:24:34.960Z,101251.44
2023-05-22T05:25:11.569Z,101248.38
2023-05-22T05:25:46.360Z,101250.31
2023-05-22T05:26:19.237Z,101251.44
2023-05-22T05:26:51.160Z,101248.78
2023-05-22T05:27:24.657Z,101253.69
2023-05-22T05:27:57.674Z,101247.41
2023-05-22T05:28:29.692Z,101247.16
2023-05-22T05:29:01.429Z,101248.78
2023-05-22T05:29:56.253Z,101248.34
2023-05-22T05:30:32.203Z,101250.53
2023-05-22T05:31:19.371Z,101249.06
2023-05-22T05:32:03.970Z,101255.97
2023-05-22T05:32:40.575Z,101253.63
2023-05-22T05:33:32.438Z,101254.13
2023-05-22T05:34:10.818Z,101254.94
2023-05-22T05:35:00.684Z,101248.03
2023-05-22T05:35:50.314Z,101254.50
2023-05-22T05:36:24.444Z,101251.41
2023-05-22T05:36:57.447Z,101250.03
2023-05-22T05:37:29.245Z,101252.22
2023-05-22T05:38:03.967Z,101249.53
2023-05-22T05:38:37.711Z,101253.59
2023-05-22T05:39:09.998Z,101257.09
2023-05-22T05:39:41.676Z,101256.84
2023-05-22T05:40:14.330Z,101249.56
2023-05-22T05:40:51.652Z,101250.69
2023-05-22T05:41:25.044Z,101252.56
2023-05-22T05:42:03.305Z,101254.66
2023-05-22T05:42:35.064Z,101257.91
2023-05-22T05:43:09.324Z,101254.44
2023-05-22T05:43:41.199Z,101256.84
2023-05-22T05:44:14.132Z,101258.47
2023-05-22T05:44:46.016Z,101254.75
2023-05-22T05:45:18.144Z,101256.84
2023-05-22T05:45:50.484Z,101250.34
2023-05-22T05:46:22.134Z,101261.16
2023-05-22T05:46:53.893Z,101257.41
2023-05-22T05:47:26.583Z,101256.06
2023-05-22T05:47:58.403Z,101256.88
2023-05-22T05:48:30.068Z,101261.72
2023-05-22T05:49:10.154Z,101259.03
2023-05-22T05:49:43.008Z,101260.66
2023-05-22T05:50:17.703Z,101257.69
2023-05-22T05:50:49.295Z,101262.00
2023-05-22T05:51:22.108Z,101256.06
2023-05-22T05:51:55.402Z,101261.66
2023-05-22T05:52:32.505Z,101259.53
2023-05-22T05:53:06.252Z,101258.22
2023-05-22T05:53:42.987Z,101263.91
2023-05-22T05:54:15.990Z,101263.91
2023-05-22T05:54:48.133Z,101263.94
2023-05-22T05:55:24.043Z,101263.13
2023-05-22T05:55:55.764Z,101271.78
2023-05-22T05:56:28.420Z,101268.34
2023-05-22T05:57:00.174Z,101264.56
2023-05-22T05:57:32.103Z,101279.63
2023-05-22T05:58:03.698Z,101268.00
2023-05-22T05:59:04.573Z,101266.63
2023-05-22T05:59:56.171Z,101270.41
2023-05-22T06:00:45.961Z,101269.88
2023-05-22T06:01:19.018Z,101272.84
2023-05-22T06:01:51.508Z,101274.31
2023-05-22T06:02:31.310Z,101277.03
2023-05-22T06:03:04.705Z,101273.97
2023-05-22T06:03:51.924Z,101272.75
2023-05-22T06:04:33.190Z,101272.88
2023-05-22T06:05:05.379Z,101269.38
2023-05-22T06:05:39.842Z,101274.44
2023-05-22T06:06:26.045Z,101271.19
2023-05-22T06:07:20.957Z,101272.91
2023-05-22T06:07:58.226Z,101273.94
2023-05-22T06:08:29.847Z,101277.25
2023-05-22T06:09:03.129Z,101272.50
2023-05-22T06:09:37.454Z,101277.41
2023-05-22T06:10:35.534Z,101273.34
2023-05-22T06:11:16.857Z,101275.47
2023-05-22T06:11:58.141Z,101267.84
2023-05-22T06:12:30.002Z,101270.03
2023-05-22T06:13:02.065Z,101274.13
2023-05-22T06:13:33.662Z,101277.41
2023-05-22T06:14:07.414Z,101275.25
2023-05-22T06:14:40.159Z,101273.47
2023-05-22T06:15:13.689Z,101270.53
2023-05-22T06:15:45.975Z,101277.97
2023-05-22T06:16:17.708Z,101273.91
2023-05-22T06:16:49.575Z,101275.19
2023-05-22T06:17:21.787Z,101281.75
2023-05-22T06:17:54.369Z,101281.78
2023-05-22T06:18:26.569Z,101272.06
2023-05-22T06:18:59.636Z,101276.13
2023-05-22T06:19:31.630Z,101283.44
2023-05-22T06:20:06.870Z,101274.31
2023-05-22T06:20:39.587Z,101279.72
2023-05-22T06:21:12.402Z,101273.31
2023-05-22T06:21:44.609Z,101279.28
2023-05-22T06:22:16.670Z,101283.63
2023-05-22T06:22:51.560Z,101279.28
2023-05-22T06:23:23.158Z,101281.47
2023-05-22T06:23:55.215Z,101276.88
2023-05-22T06:24:27.385Z,101278.22
2023-05-22T06:24:59.125Z,101283.91
2023-05-22T06:25:32.381Z,101276.63
2023-05-22T06:26:05.139Z,101273.47
2023-05-22T06:26:37.004Z,101274.03
2023-05-22T06:27:09.009Z,101276.22
2023-05-22T06:27:41.055Z,101280.38
2023-05-22T06:28:12.866Z,101270.94
2023-05-22T06:28:45.062Z,101283.97